This is the latest recevied weather packets stored in our database for station/object KI6PPU. If no packets are shown the sender has not sent any weather packets the latest 10 day(s).
| Time | Temp. | Humidity | Pressure | Rain* | Wind** | Luminosity | Snow |
|---|---|---|---|---|---|---|---|
| 1777775174 | 18.89° C | 73% | 1013 hPa | 0 mm | - | 13 W/m² | - |
| 1777774869 | 18.89° C | 73% | 1012.9 hPa | 0 mm | - | 18 W/m² | - |
| 1777774566 | 18.89° C | 72% | 1013.1 hPa | 0 mm | - | 22 W/m² | - |
| 1777774263 | 19.44° C | 70% | 1013 hPa | 0 mm | - | 26 W/m² | - |
| 1777773960 | 19.44° C | 69% | 1013.1 hPa | 0 mm | - | 29 W/m² | - |
| 1777773656 | 20° C | 67% | 1012.9 hPa | 0 mm | - | 32 W/m² | - |
| 1777773354 | 20° C | 67% | 1013 hPa | 0 mm | - | 37 W/m² | - |
| 1777773051 | 20° C | 67% | 1012.8 hPa | 0 mm | - | 43 W/m² | - |
| 1777772746 | 20° C | 66% | 1013.1 hPa | 0 mm | - | 50 W/m² | - |
| 1777772444 | 20.56° C | 65% | 1013.1 hPa | 0 mm | - | 60 W/m² | - |
| 1777772141 | 20.56° C | 67% | 1013 hPa | 0 mm | - | 72 W/m² | - |
| 1777771839 | 20.56° C | 64% | 1013 hPa | 0 mm | - | 87 W/m² | - |
| 1777771536 | 20.56° C | 66% | 1013.1 hPa | 0 mm | - | 99 W/m² | - |
| 1777771233 | 20.56° C | 64% | 1013 hPa | 0 mm | - | 106 W/m² | - |
| 1777770929 | 20.56° C | 66% | 1012.9 hPa | 0 mm | - | 110 W/m² | - |
| 1777770627 | 21.11° C | 63% | 1013 hPa | 0 mm | - | 114 W/m² | - |
| 1777770323 | 21.11° C | 63% | 1013 hPa | 0 mm | - | 124 W/m² | - |
| 1777770021 | 21.11° C | 64% | 1012.8 hPa | 0 mm | - | 128 W/m² | - |
| 1777769718 | 21.11° C | 63% | 1012.9 hPa | 0 mm | - | 131 W/m² | - |
| 1777769415 | 21.67° C | 62% | 1013 hPa | 0 mm | - | 125 W/m² | - |
| 1777769111 | 21.67° C | 62% | 1013.1 hPa | 0 mm | - | 150 W/m² | - |
| 1777768809 | 22.22° C | 61% | 1013 hPa | 0 mm | - | 213 W/m² | - |
| 1777768505 | 21.67° C | 63% | 1013.1 hPa | 0 mm | - | 194 W/m² | - |
| 1777768203 | 21.67° C | 64% | 1013 hPa | 0 mm | - | 204 W/m² | - |
| 1777767900 | 21.67° C | 62% | 1013 hPa | 0 mm | - | 209 W/m² | - |
* Rain latest hour (hover to see other rain measurements)
** Current wind speed in m/s (hover to see current wind gust speed)